Trempealeau, Wisconsin
Current Conditions -  °F | °C
As of 12:53 AM on Saturday 25 Oct 2014 (Local Time) from KLSE Reporting Station
Haze Haze  
Wind Chill: 56°   Ceiling: Unl
Heat Index: 56°   Visibility: 5mi
Dew Point: 54°   Wind: 6mph
Humidity: 93%   Direction: 200°SSW
Pressure: 29.89"   Gusts: NA
Location:  44.01°N, 91.44°W
Report Text: KLSE 250553Z AUTO 20005KT 5SM BR FEW009 13/12 A2989 RMK AO2 SLP118 T01330122 10156 20133 401890106 56003
Loading
Personal Weather Stations






























Interactive Weather Map
Tropical Storm Tracking
New forecast layout! Learn more

10-Day Weather Forecast

Advertisements
Track Severe Weather on mobile